sensor_id;sensor_type;location;lat;lon;timestamp;P1;durP1;ratioP1;P2;durP2;ratioP2
71947;SDS011;63257;55.082;38.772;2023-06-22T00:01:10;23.05;;;10.98;;
71947;SDS011;63257;55.082;38.772;2023-06-22T00:03:36;19.43;;;11.13;;
71947;SDS011;63257;55.082;38.772;2023-06-22T00:06:02;20.73;;;10.32;;
71947;SDS011;63257;55.082;38.772;2023-06-22T00:08:28;20.05;;;10.63;;
71947;SDS011;63257;55.082;38.772;2023-06-22T00:10:54;20.97;;;10.67;;
71947;SDS011;63257;55.082;38.772;2023-06-22T00:13:20;18.60;;;10.32;;
71947;SDS011;63257;55.082;38.772;2023-06-22T00:15:46;19.40;;;10.70;;
71947;SDS011;63257;55.082;38.772;2023-06-22T00:18:12;18.35;;;10.70;;
71947;SDS011;63257;55.082;38.772;2023-06-22T00:20:38;22.42;;;10.63;;
71947;SDS011;63257;55.082;38.772;2023-06-22T00:23:05;19.20;;;10.15;;
71947;SDS011;63257;55.082;38.772;2023-06-22T00:25:36;21.17;;;10.30;;
71947;SDS011;63257;55.082;38.772;2023-06-22T00:28:08;21.48;;;10.85;;
71947;SDS011;63257;55.082;38.772;2023-06-22T00:30:35;19.92;;;11.18;;
71947;SDS011;63257;55.082;38.772;2023-06-22T00:33:02;21.52;;;10.80;;
71947;SDS011;63257;55.082;38.772;2023-06-22T00:35:28;18.30;;;10.18;;
71947;SDS011;63257;55.082;38.772;2023-06-22T00:37:58;19.17;;;10.53;;
71947;SDS011;63257;55.082;38.772;2023-06-22T00:40:29;24.02;;;10.50;;
71947;SDS011;63257;55.082;38.772;2023-06-22T00:42:59;24.45;;;10.82;;
71947;SDS011;63257;55.082;38.772;2023-06-22T00:45:25;20.15;;;10.32;;
71947;SDS011;63257;55.082;38.772;2023-06-22T00:47:52;20.35;;;10.35;;
71947;SDS011;63257;55.082;38.772;2023-06-22T00:50:20;28.40;;;10.87;;
71947;SDS011;63257;55.082;38.772;2023-06-22T00:52:48;20.55;;;10.95;;
71947;SDS011;63257;55.082;38.772;2023-06-22T00:55:22;17.65;;;9.85;;
71947;SDS011;63257;55.082;38.772;2023-06-22T00:57:52;20.98;;;10.85;;
71947;SDS011;63257;55.082;38.772;2023-06-22T01:00:25;23.67;;;10.67;;
71947;SDS011;63257;55.082;38.772;2023-06-22T01:02:52;16.92;;;10.50;;
71947;SDS011;63257;55.082;38.772;2023-06-22T01:05:19;18.33;;;10.48;;
71947;SDS011;63257;55.082;38.772;2023-06-22T01:16:03;17.98;;;9.63;;
71947;SDS011;63257;55.082;38.772;2023-06-22T01:18:33;22.15;;;10.48;;
71947;SDS011;63257;55.082;38.772;2023-06-22T01:21:03;22.10;;;11.18;;
71947;SDS011;63257;55.082;38.772;2023-06-22T01:26:38;19.33;;;10.60;;
71947;SDS011;63257;55.082;38.772;2023-06-22T01:29:27;20.25;;;11.07;;
71947;SDS011;63257;55.082;38.772;2023-06-22T01:31:54;18.35;;;10.70;;
71947;SDS011;63257;55.082;38.772;2023-06-22T01:34:23;18.08;;;9.98;;
71947;SDS011;63257;55.082;38.772;2023-06-22T01:36:50;18.60;;;11.30;;
71947;SDS011;63257;55.082;38.772;2023-06-22T01:39:17;21.85;;;10.52;;
71947;SDS011;63257;55.082;38.772;2023-06-22T01:41:43;20.08;;;11.13;;
71947;SDS011;63257;55.082;38.772;2023-06-22T01:44:09;19.70;;;10.93;;
71947;SDS011;63257;55.082;38.772;2023-06-22T01:46:36;18.73;;;10.13;;
71947;SDS011;63257;55.082;38.772;2023-06-22T01:49:03;21.17;;;10.48;;
71947;SDS011;63257;55.082;38.772;2023-06-22T01:51:30;20.67;;;11.07;;
71947;SDS011;63257;55.082;38.772;2023-06-22T01:53:59;19.23;;;10.93;;
71947;SDS011;63257;55.082;38.772;2023-06-22T01:56:27;22.27;;;11.38;;
71947;SDS011;63257;55.082;38.772;2023-06-22T01:59:15;21.60;;;11.03;;
71947;SDS011;63257;55.082;38.772;2023-06-22T02:01:54;24.10;;;11.05;;
71947;SDS011;63257;55.082;38.772;2023-06-22T02:04:36;17.88;;;10.40;;
71947;SDS011;63257;55.082;38.772;2023-06-22T02:07:13;19.50;;;10.43;;
71947;SDS011;63257;55.082;38.772;2023-06-22T02:09:45;17.02;;;9.88;;
71947;SDS011;63257;55.082;38.772;2023-06-22T02:12:17;18.33;;;10.00;;
71947;SDS011;63257;55.082;38.772;2023-06-22T02:14:47;19.90;;;10.38;;
71947;SDS011;63257;55.082;38.772;2023-06-22T02:17:14;18.55;;;10.80;;
71947;SDS011;63257;55.082;38.772;2023-06-22T02:19:43;19.37;;;10.20;;
71947;SDS011;63257;55.082;38.772;2023-06-22T02:22:09;22.80;;;11.05;;
71947;SDS011;63257;55.082;38.772;2023-06-22T02:24:36;21.20;;;11.00;;
71947;SDS011;63257;55.082;38.772;2023-06-22T02:27:02;17.95;;;10.45;;
71947;SDS011;63257;55.082;38.772;2023-06-22T02:29:31;20.60;;;10.87;;
71947;SDS011;63257;55.082;38.772;2023-06-22T02:31:58;20.80;;;11.05;;
71947;SDS011;63257;55.082;38.772;2023-06-22T02:34:24;23.45;;;12.82;;
71947;SDS011;63257;55.082;38.772;2023-06-22T02:36:50;25.70;;;11.90;;
71947;SDS011;63257;55.082;38.772;2023-06-22T02:39:20;21.27;;;11.38;;
71947;SDS011;63257;55.082;38.772;2023-06-22T02:41:49;24.27;;;11.93;;
71947;SDS011;63257;55.082;38.772;2023-06-22T02:44:16;24.00;;;11.48;;
71947;SDS011;63257;55.082;38.772;2023-06-22T02:46:43;23.60;;;11.70;;
71947;SDS011;63257;55.082;38.772;2023-06-22T02:49:10;24.35;;;12.23;;
71947;SDS011;63257;55.082;38.772;2023-06-22T02:51:37;28.45;;;12.80;;
71947;SDS011;63257;55.082;38.772;2023-06-22T02:54:05;26.27;;;13.20;;
71947;SDS011;63257;55.082;38.772;2023-06-22T02:56:32;27.60;;;12.90;;
71947;SDS011;63257;55.082;38.772;2023-06-22T02:59:00;28.85;;;12.30;;
71947;SDS011;63257;55.082;38.772;2023-06-22T03:01:29;31.52;;;13.38;;
71947;SDS011;63257;55.082;38.772;2023-06-22T03:03:57;26.95;;;13.05;;
71947;SDS011;63257;55.082;38.772;2023-06-22T03:06:23;32.63;;;14.10;;
71947;SDS011;63257;55.082;38.772;2023-06-22T03:08:58;31.30;;;13.88;;
71947;SDS011;63257;55.082;38.772;2023-06-22T03:11:26;26.85;;;13.20;;
71947;SDS011;63257;55.082;38.772;2023-06-22T03:13:52;24.13;;;11.80;;
71947;SDS011;63257;55.082;38.772;2023-06-22T03:16:18;25.17;;;12.53;;
71947;SDS011;63257;55.082;38.772;2023-06-22T03:18:45;25.98;;;11.65;;
71947;SDS011;63257;55.082;38.772;2023-06-22T03:21:12;26.25;;;12.13;;
71947;SDS011;63257;55.082;38.772;2023-06-22T03:23:38;27.60;;;12.50;;
71947;SDS011;63257;55.082;38.772;2023-06-22T03:26:05;28.47;;;11.63;;
71947;SDS011;63257;55.082;38.772;2023-06-22T03:28:30;23.67;;;12.32;;
71947;SDS011;63257;55.082;38.772;2023-06-22T03:30:59;26.92;;;11.65;;
71947;SDS011;63257;55.082;38.772;2023-06-22T03:33:25;25.43;;;11.77;;
71947;SDS011;63257;55.082;38.772;2023-06-22T03:35:51;25.90;;;12.30;;
71947;SDS011;63257;55.082;38.772;2023-06-22T03:38:17;26.40;;;12.20;;
71947;SDS011;63257;55.082;38.772;2023-06-22T03:40:43;24.50;;;11.53;;
71947;SDS011;63257;55.082;38.772;2023-06-22T03:43:09;23.33;;;10.55;;
71947;SDS011;63257;55.082;38.772;2023-06-22T03:45:35;21.35;;;10.65;;
71947;SDS011;63257;55.082;38.772;2023-06-22T03:48:00;20.60;;;8.87;;
71947;SDS011;63257;55.082;38.772;2023-06-22T03:50:27;21.55;;;8.95;;
71947;SDS011;63257;55.082;38.772;2023-06-22T03:52:53;17.60;;;8.85;;
71947;SDS011;63257;55.082;38.772;2023-06-22T03:55:22;16.47;;;8.63;;
71947;SDS011;63257;55.082;38.772;2023-06-22T03:57:47;16.85;;;8.50;;
71947;SDS011;63257;55.082;38.772;2023-06-22T04:00:13;15.32;;;8.18;;
71947;SDS011;63257;55.082;38.772;2023-06-22T04:02:41;15.40;;;8.57;;
71947;SDS011;63257;55.082;38.772;2023-06-22T04:05:08;16.77;;;9.13;;
71947;SDS011;63257;55.082;38.772;2023-06-22T04:07:34;14.00;;;9.20;;
71947;SDS011;63257;55.082;38.772;2023-06-22T04:10:05;16.20;;;8.95;;
71947;SDS011;63257;55.082;38.772;2023-06-22T04:12:32;15.50;;;8.65;;
71947;SDS011;63257;55.082;38.772;2023-06-22T04:14:58;17.37;;;9.27;;
71947;SDS011;63257;55.082;38.772;2023-06-22T04:17:23;18.90;;;9.38;;
71947;SDS011;63257;55.082;38.772;2023-06-22T04:19:50;15.68;;;9.13;;
71947;SDS011;63257;55.082;38.772;2023-06-22T04:22:16;18.58;;;9.00;;
71947;SDS011;63257;55.082;38.772;2023-06-22T04:24:43;18.73;;;8.60;;
71947;SDS011;63257;55.082;38.772;2023-06-22T04:27:09;13.65;;;8.85;;
71947;SDS011;63257;55.082;38.772;2023-06-22T04:29:35;14.35;;;8.15;;
71947;SDS011;63257;55.082;38.772;2023-06-22T04:32:01;14.83;;;8.27;;
71947;SDS011;63257;55.082;38.772;2023-06-22T04:34:30;14.90;;;8.00;;
71947;SDS011;63257;55.082;38.772;2023-06-22T04:36:56;13.13;;;7.93;;
71947;SDS011;63257;55.082;38.772;2023-06-22T04:39:23;17.25;;;8.30;;
71947;SDS011;63257;55.082;38.772;2023-06-22T04:41:49;16.00;;;8.13;;
71947;SDS011;63257;55.082;38.772;2023-06-22T04:44:19;14.02;;;8.35;;
71947;SDS011;63257;55.082;38.772;2023-06-22T04:46:52;16.55;;;8.20;;
71947;SDS011;63257;55.082;38.772;2023-06-22T04:49:34;13.77;;;8.00;;
71947;SDS011;63257;55.082;38.772;2023-06-22T04:52:03;14.07;;;7.80;;
71947;SDS011;63257;55.082;38.772;2023-06-22T04:54:31;13.67;;;8.30;;
71947;SDS011;63257;55.082;38.772;2023-06-22T04:57:01;15.48;;;7.32;;
71947;SDS011;63257;55.082;38.772;2023-06-22T04:59:29;15.88;;;7.70;;
71947;SDS011;63257;55.082;38.772;2023-06-22T05:01:57;15.93;;;7.95;;
71947;SDS011;63257;55.082;38.772;2023-06-22T05:04:24;15.30;;;7.80;;
71947;SDS011;63257;55.082;38.772;2023-06-22T05:06:53;14.60;;;7.97;;
71947;SDS011;63257;55.082;38.772;2023-06-22T05:09:20;14.93;;;8.13;;
71947;SDS011;63257;55.082;38.772;2023-06-22T05:11:46;14.23;;;7.65;;
71947;SDS011;63257;55.082;38.772;2023-06-22T05:14:13;13.70;;;7.28;;
71947;SDS011;63257;55.082;38.772;2023-06-22T05:16:40;15.48;;;7.70;;
71947;SDS011;63257;55.082;38.772;2023-06-22T05:19:07;14.07;;;7.77;;
71947;SDS011;63257;55.082;38.772;2023-06-22T05:21:33;13.23;;;7.70;;
71947;SDS011;63257;55.082;38.772;2023-06-22T05:23:59;11.80;;;7.43;;
71947;SDS011;63257;55.082;38.772;2023-06-22T05:26:28;13.48;;;7.07;;
71947;SDS011;63257;55.082;38.772;2023-06-22T05:28:55;13.23;;;7.18;;
71947;SDS011;63257;55.082;38.772;2023-06-22T05:31:22;12.23;;;7.30;;
71947;SDS011;63257;55.082;38.772;2023-06-22T05:33:48;12.30;;;7.30;;
71947;SDS011;63257;55.082;38.772;2023-06-22T05:36:17;13.32;;;7.45;;
71947;SDS011;63257;55.082;38.772;2023-06-22T05:38:45;15.18;;;6.82;;
71947;SDS011;63257;55.082;38.772;2023-06-22T05:41:11;10.57;;;6.87;;
71947;SDS011;63257;55.082;38.772;2023-06-22T05:43:37;12.45;;;7.07;;
71947;SDS011;63257;55.082;38.772;2023-06-22T05:46:03;11.32;;;6.57;;
71947;SDS011;63257;55.082;38.772;2023-06-22T05:48:30;12.60;;;6.77;;
71947;SDS011;63257;55.082;38.772;2023-06-22T05:50:56;12.93;;;6.85;;
71947;SDS011;63257;55.082;38.772;2023-06-22T05:53:22;14.65;;;7.60;;
71947;SDS011;63257;55.082;38.772;2023-06-22T05:55:48;11.10;;;6.68;;
71947;SDS011;63257;55.082;38.772;2023-06-22T05:58:14;10.32;;;5.80;;
71947;SDS011;63257;55.082;38.772;2023-06-22T06:00:40;9.73;;;4.97;;
71947;SDS011;63257;55.082;38.772;2023-06-22T06:03:06;9.13;;;5.30;;
71947;SDS011;63257;55.082;38.772;2023-06-22T06:05:33;10.63;;;5.63;;
71947;SDS011;63257;55.082;38.772;2023-06-22T06:07:59;10.98;;;5.53;;
71947;SDS011;63257;55.082;38.772;2023-06-22T06:10:26;9.35;;;5.40;;
71947;SDS011;63257;55.082;38.772;2023-06-22T06:12:52;9.57;;;5.70;;
71947;SDS011;63257;55.082;38.772;2023-06-22T06:15:18;9.57;;;5.80;;
71947;SDS011;63257;55.082;38.772;2023-06-22T06:17:51;10.13;;;5.07;;
71947;SDS011;63257;55.082;38.772;2023-06-22T06:20:19;8.80;;;5.60;;
71947;SDS011;63257;55.082;38.772;2023-06-22T06:22:46;8.65;;;5.30;;
71947;SDS011;63257;55.082;38.772;2023-06-22T06:25:12;11.30;;;5.83;;
71947;SDS011;63257;55.082;38.772;2023-06-22T06:27:42;10.15;;;4.88;;
71947;SDS011;63257;55.082;38.772;2023-06-22T06:30:09;10.18;;;5.57;;
71947;SDS011;63257;55.082;38.772;2023-06-22T06:32:36;11.57;;;5.80;;
71947;SDS011;63257;55.082;38.772;2023-06-22T06:35:03;9.65;;;5.80;;
71947;SDS011;63257;55.082;38.772;2023-06-22T06:37:31;11.03;;;5.60;;
71947;SDS011;63257;55.082;38.772;2023-06-22T06:39:57;11.45;;;5.55;;
71947;SDS011;63257;55.082;38.772;2023-06-22T06:42:22;9.60;;;5.30;;
71947;SDS011;63257;55.082;38.772;2023-06-22T06:44:49;9.87;;;5.10;;
71947;SDS011;63257;55.082;38.772;2023-06-22T06:47:15;8.57;;;4.90;;
71947;SDS011;63257;55.082;38.772;2023-06-22T06:49:42;12.73;;;6.82;;
71947;SDS011;63257;55.082;38.772;2023-06-22T06:52:08;7.93;;;4.95;;
71947;SDS011;63257;55.082;38.772;2023-06-22T06:54:34;11.07;;;5.10;;
71947;SDS011;63257;55.082;38.772;2023-06-22T06:56:59;7.07;;;4.40;;
71947;SDS011;63257;55.082;38.772;2023-06-22T06:59:25;7.73;;;4.47;;
71947;SDS011;63257;55.082;38.772;2023-06-22T07:01:51;7.05;;;4.10;;
71947;SDS011;63257;55.082;38.772;2023-06-22T07:04:17;7.03;;;4.43;;
71947;SDS011;63257;55.082;38.772;2023-06-22T07:06:43;6.55;;;4.28;;
71947;SDS011;63257;55.082;38.772;2023-06-22T07:09:08;7.95;;;4.32;;
71947;SDS011;63257;55.082;38.772;2023-06-22T07:11:34;8.70;;;4.50;;
71947;SDS011;63257;55.082;38.772;2023-06-22T07:14:01;8.25;;;4.50;;
71947;SDS011;63257;55.082;38.772;2023-06-22T07:16:27;8.32;;;4.13;;
71947;SDS011;63257;55.082;38.772;2023-06-22T07:18:54;9.48;;;4.40;;
71947;SDS011;63257;55.082;38.772;2023-06-22T07:21:19;7.18;;;4.68;;
71947;SDS011;63257;55.082;38.772;2023-06-22T07:23:45;9.43;;;4.80;;
71947;SDS011;63257;55.082;38.772;2023-06-22T07:26:11;9.15;;;4.40;;
71947;SDS011;63257;55.082;38.772;2023-06-22T07:28:38;6.45;;;4.28;;
71947;SDS011;63257;55.082;38.772;2023-06-22T07:31:06;7.60;;;4.45;;
71947;SDS011;63257;55.082;38.772;2023-06-22T07:33:32;7.60;;;4.60;;
71947;SDS011;63257;55.082;38.772;2023-06-22T07:35:57;6.78;;;4.20;;
71947;SDS011;63257;55.082;38.772;2023-06-22T07:38:23;6.60;;;4.33;;
71947;SDS011;63257;55.082;38.772;2023-06-22T07:40:49;6.72;;;4.40;;
71947;SDS011;63257;55.082;38.772;2023-06-22T07:43:16;9.07;;;4.72;;
71947;SDS011;63257;55.082;38.772;2023-06-22T07:45:47;7.40;;;4.30;;
71947;SDS011;63257;55.082;38.772;2023-06-22T07:48:19;7.30;;;4.35;;
71947;SDS011;63257;55.082;38.772;2023-06-22T07:50:46;13.77;;;4.70;;
71947;SDS011;63257;55.082;38.772;2023-06-22T07:53:12;7.13;;;4.60;;
71947;SDS011;63257;55.082;38.772;2023-06-22T07:55:38;6.43;;;4.25;;
71947;SDS011;63257;55.082;38.772;2023-06-22T07:58:04;7.85;;;4.60;;
71947;SDS011;63257;55.082;38.772;2023-06-22T08:00:29;7.50;;;4.23;;
71947;SDS011;63257;55.082;38.772;2023-06-22T08:02:55;8.18;;;4.43;;
71947;SDS011;63257;55.082;38.772;2023-06-22T08:05:21;6.70;;;4.27;;
71947;SDS011;63257;55.082;38.772;2023-06-22T08:07:47;7.35;;;4.30;;
71947;SDS011;63257;55.082;38.772;2023-06-22T08:10:14;6.25;;;4.18;;
71947;SDS011;63257;55.082;38.772;2023-06-22T08:12:40;8.60;;;4.30;;
71947;SDS011;63257;55.082;38.772;2023-06-22T08:15:06;7.00;;;4.30;;
71947;SDS011;63257;55.082;38.772;2023-06-22T08:17:33;8.70;;;4.82;;
71947;SDS011;63257;55.082;38.772;2023-06-22T08:19:59;7.75;;;4.53;;
71947;SDS011;63257;55.082;38.772;2023-06-22T08:22:25;8.00;;;4.70;;
71947;SDS011;63257;55.082;38.772;2023-06-22T08:24:51;8.75;;;5.25;;
71947;SDS011;63257;55.082;38.772;2023-06-22T08:27:16;8.13;;;4.50;;
71947;SDS011;63257;55.082;38.772;2023-06-22T08:29:46;6.80;;;4.33;;
71947;SDS011;63257;55.082;38.772;2023-06-22T08:32:12;7.38;;;4.82;;
71947;SDS011;63257;55.082;38.772;2023-06-22T08:34:38;6.75;;;4.53;;
71947;SDS011;63257;55.082;38.772;2023-06-22T08:37:08;7.20;;;4.70;;
71947;SDS011;63257;55.082;38.772;2023-06-22T08:39:34;7.93;;;5.00;;
71947;SDS011;63257;55.082;38.772;2023-06-22T08:42:00;6.30;;;4.32;;
71947;SDS011;63257;55.082;38.772;2023-06-22T08:44:26;6.83;;;4.60;;
71947;SDS011;63257;55.082;38.772;2023-06-22T08:46:52;7.78;;;4.38;;
71947;SDS011;63257;55.082;38.772;2023-06-22T08:49:17;6.80;;;4.40;;
71947;SDS011;63257;55.082;38.772;2023-06-22T08:51:43;7.22;;;4.53;;
71947;SDS011;63257;55.082;38.772;2023-06-22T08:54:11;7.72;;;4.25;;
71947;SDS011;63257;55.082;38.772;2023-06-22T08:56:37;7.70;;;4.20;;
71947;SDS011;63257;55.082;38.772;2023-06-22T08:59:02;7.63;;;4.45;;
71947;SDS011;63257;55.082;38.772;2023-06-22T09:01:28;9.02;;;4.50;;
71947;SDS011;63257;55.082;38.772;2023-06-22T09:03:54;7.03;;;4.67;;
71947;SDS011;63257;55.082;38.772;2023-06-22T09:06:23;7.70;;;4.63;;
71947;SDS011;63257;55.082;38.772;2023-06-22T09:08:49;6.45;;;4.30;;
71947;SDS011;63257;55.082;38.772;2023-06-22T09:11:16;7.32;;;4.70;;
71947;SDS011;63257;55.082;38.772;2023-06-22T09:13:42;7.47;;;4.95;;
71947;SDS011;63257;55.082;38.772;2023-06-22T09:16:08;6.97;;;4.70;;
71947;SDS011;63257;55.082;38.772;2023-06-22T09:18:34;6.90;;;4.50;;
71947;SDS011;63257;55.082;38.772;2023-06-22T09:21:00;6.50;;;4.65;;
71947;SDS011;63257;55.082;38.772;2023-06-22T09:23:26;8.03;;;4.70;;
71947;SDS011;63257;55.082;38.772;2023-06-22T09:25:52;6.65;;;4.68;;
71947;SDS011;63257;55.082;38.772;2023-06-22T09:28:17;7.13;;;4.60;;
71947;SDS011;63257;55.082;38.772;2023-06-22T09:30:43;6.83;;;4.50;;
71947;SDS011;63257;55.082;38.772;2023-06-22T09:33:12;6.63;;;4.30;;
71947;SDS011;63257;55.082;38.772;2023-06-22T09:35:38;7.55;;;4.68;;
71947;SDS011;63257;55.082;38.772;2023-06-22T09:38:04;6.60;;;4.30;;
71947;SDS011;63257;55.082;38.772;2023-06-22T09:40:30;7.85;;;4.68;;
71947;SDS011;63257;55.082;38.772;2023-06-22T09:42:58;7.38;;;4.75;;
71947;SDS011;63257;55.082;38.772;2023-06-22T09:45:24;5.90;;;4.03;;
71947;SDS011;63257;55.082;38.772;2023-06-22T09:47:49;7.85;;;4.80;;
71947;SDS011;63257;55.082;38.772;2023-06-22T09:50:15;7.07;;;4.30;;
71947;SDS011;63257;55.082;38.772;2023-06-22T09:52:41;7.30;;;4.30;;
71947;SDS011;63257;55.082;38.772;2023-06-22T09:55:10;6.47;;;4.50;;
71947;SDS011;63257;55.082;38.772;2023-06-22T09:57:36;8.18;;;4.80;;
71947;SDS011;63257;55.082;38.772;2023-06-22T10:00:02;8.60;;;4.68;;
71947;SDS011;63257;55.082;38.772;2023-06-22T10:02:31;7.07;;;4.70;;
71947;SDS011;63257;55.082;38.772;2023-06-22T10:04:57;8.85;;;4.38;;
71947;SDS011;63257;55.082;38.772;2023-06-22T10:07:23;7.57;;;4.72;;
71947;SDS011;63257;55.082;38.772;2023-06-22T10:09:48;8.25;;;4.60;;
71947;SDS011;63257;55.082;38.772;2023-06-22T10:12:14;7.28;;;4.55;;
71947;SDS011;63257;55.082;38.772;2023-06-22T10:14:40;6.43;;;4.75;;
71947;SDS011;63257;55.082;38.772;2023-06-22T10:17:06;11.13;;;4.78;;
71947;SDS011;63257;55.082;38.772;2023-06-22T10:19:33;8.23;;;4.73;;
71947;SDS011;63257;55.082;38.772;2023-06-22T10:21:59;7.20;;;4.10;;
71947;SDS011;63257;55.082;38.772;2023-06-22T10:24:24;7.03;;;4.53;;
71947;SDS011;63257;55.082;38.772;2023-06-22T10:26:50;6.33;;;4.33;;
71947;SDS011;63257;55.082;38.772;2023-06-22T10:29:16;8.23;;;4.80;;
71947;SDS011;63257;55.082;38.772;2023-06-22T10:31:42;6.63;;;4.68;;
71947;SDS011;63257;55.082;38.772;2023-06-22T10:34:08;7.33;;;5.07;;
71947;SDS011;63257;55.082;38.772;2023-06-22T10:36:34;9.10;;;4.97;;
71947;SDS011;63257;55.082;38.772;2023-06-22T10:38:59;7.37;;;4.50;;
71947;SDS011;63257;55.082;38.772;2023-06-22T10:41:28;7.70;;;4.70;;
71947;SDS011;63257;55.082;38.772;2023-06-22T10:43:55;6.93;;;4.47;;
71947;SDS011;63257;55.082;38.772;2023-06-22T10:46:23;6.78;;;4.40;;
71947;SDS011;63257;55.082;38.772;2023-06-22T10:48:50;6.63;;;4.20;;
71947;SDS011;63257;55.082;38.772;2023-06-22T10:51:15;8.37;;;4.70;;
71947;SDS011;63257;55.082;38.772;2023-06-22T10:53:41;6.97;;;4.47;;
71947;SDS011;63257;55.082;38.772;2023-06-22T10:56:08;8.18;;;4.65;;
71947;SDS011;63257;55.082;38.772;2023-06-22T10:58:34;7.20;;;4.30;;
71947;SDS011;63257;55.082;38.772;2023-06-22T11:00:59;7.22;;;4.10;;
71947;SDS011;63257;55.082;38.772;2023-06-22T11:03:25;6.90;;;4.30;;
71947;SDS011;63257;55.082;38.772;2023-06-22T11:05:51;7.18;;;4.43;;
71947;SDS011;63257;55.082;38.772;2023-06-22T11:08:17;6.87;;;4.50;;
71947;SDS011;63257;55.082;38.772;2023-06-22T11:10:43;7.18;;;4.38;;
71947;SDS011;63257;55.082;38.772;2023-06-22T11:13:09;7.68;;;5.10;;
71947;SDS011;63257;55.082;38.772;2023-06-22T11:15:35;6.63;;;4.57;;
71947;SDS011;63257;55.082;38.772;2023-06-22T11:18:01;7.47;;;5.30;;
71947;SDS011;63257;55.082;38.772;2023-06-22T11:20:27;8.02;;;5.40;;
71947;SDS011;63257;55.082;38.772;2023-06-22T11:22:53;6.33;;;4.90;;
71947;SDS011;63257;55.082;38.772;2023-06-22T11:25:19;6.13;;;4.90;;
71947;SDS011;63257;55.082;38.772;2023-06-22T11:27:44;6.93;;;5.10;;
71947;SDS011;63257;55.082;38.772;2023-06-22T11:30:10;8.17;;;5.07;;
71947;SDS011;63257;55.082;38.772;2023-06-22T11:32:36;7.72;;;5.28;;
71947;SDS011;63257;55.082;38.772;2023-06-22T11:35:02;7.35;;;5.00;;
71947;SDS011;63257;55.082;38.772;2023-06-22T11:37:30;8.18;;;5.40;;
71947;SDS011;63257;55.082;38.772;2023-06-22T11:39:56;7.47;;;5.05;;
71947;SDS011;63257;55.082;38.772;2023-06-22T11:42:23;9.77;;;6.47;;
71947;SDS011;63257;55.082;38.772;2023-06-22T11:44:49;9.70;;;5.50;;
71947;SDS011;63257;55.082;38.772;2023-06-22T11:47:15;6.50;;;5.50;;
71947;SDS011;63257;55.082;38.772;2023-06-22T11:49:41;7.38;;;5.60;;
71947;SDS011;63257;55.082;38.772;2023-06-22T11:52:07;6.40;;;5.30;;
71947;SDS011;63257;55.082;38.772;2023-06-22T11:54:32;7.25;;;4.47;;
71947;SDS011;63257;55.082;38.772;2023-06-22T11:56:58;6.72;;;5.38;;
71947;SDS011;63257;55.082;38.772;2023-06-22T11:59:24;7.30;;;5.80;;
71947;SDS011;63257;55.082;38.772;2023-06-22T12:01:50;6.35;;;5.32;;
71947;SDS011;63257;55.082;38.772;2023-06-22T12:04:17;7.70;;;5.68;;
71947;SDS011;63257;55.082;38.772;2023-06-22T12:06:43;6.07;;;5.10;;
71947;SDS011;63257;55.082;38.772;2023-06-22T12:09:09;7.65;;;5.65;;
71947;SDS011;63257;55.082;38.772;2023-06-22T12:11:35;7.82;;;6.03;;
71947;SDS011;63257;55.082;38.772;2023-06-22T12:14:01;9.43;;;5.85;;
71947;SDS011;63257;55.082;38.772;2023-06-22T12:16:28;7.17;;;5.53;;
71947;SDS011;63257;55.082;38.772;2023-06-22T12:18:54;8.45;;;5.75;;
71947;SDS011;63257;55.082;38.772;2023-06-22T12:21:20;7.47;;;5.95;;
71947;SDS011;63257;55.082;38.772;2023-06-22T12:23:45;7.03;;;6.00;;
71947;SDS011;63257;55.082;38.772;2023-06-22T12:26:11;8.70;;;5.55;;
71947;SDS011;63257;55.082;38.772;2023-06-22T12:28:37;7.05;;;5.55;;
71947;SDS011;63257;55.082;38.772;2023-06-22T12:31:03;6.70;;;5.40;;
71947;SDS011;63257;55.082;38.772;2023-06-22T12:33:29;8.90;;;6.47;;
71947;SDS011;63257;55.082;38.772;2023-06-22T12:35:57;8.05;;;5.63;;
71947;SDS011;63257;55.082;38.772;2023-06-22T12:38:23;6.77;;;5.57;;
71947;SDS011;63257;55.082;38.772;2023-06-22T12:40:51;7.65;;;5.60;;
71947;SDS011;63257;55.082;38.772;2023-06-22T12:43:16;7.63;;;5.60;;
71947;SDS011;63257;55.082;38.772;2023-06-22T12:45:42;6.93;;;5.70;;
71947;SDS011;63257;55.082;38.772;2023-06-22T12:48:08;6.30;;;4.88;;
71947;SDS011;63257;55.082;38.772;2023-06-22T12:50:34;8.15;;;6.00;;
71947;SDS011;63257;55.082;38.772;2023-06-22T12:53:00;7.23;;;6.23;;
71947;SDS011;63257;55.082;38.772;2023-06-22T12:55:27;7.65;;;5.53;;
71947;SDS011;63257;55.082;38.772;2023-06-22T12:57:53;6.57;;;5.38;;
71947;SDS011;63257;55.082;38.772;2023-06-22T13:00:19;7.87;;;5.90;;
71947;SDS011;63257;55.082;38.772;2023-06-22T13:02:45;9.40;;;5.80;;
71947;SDS011;63257;55.082;38.772;2023-06-22T13:05:11;6.93;;;5.68;;
71947;SDS011;63257;55.082;38.772;2023-06-22T13:07:37;7.07;;;5.60;;
71947;SDS011;63257;55.082;38.772;2023-06-22T13:10:03;7.47;;;6.40;;
71947;SDS011;63257;55.082;38.772;2023-06-22T13:12:32;7.22;;;6.40;;
71947;SDS011;63257;55.082;38.772;2023-06-22T13:14:57;7.70;;;5.03;;
71947;SDS011;63257;55.082;38.772;2023-06-22T13:17:23;8.77;;;5.60;;
71947;SDS011;63257;55.082;38.772;2023-06-22T13:19:49;8.00;;;6.30;;
71947;SDS011;63257;55.082;38.772;2023-06-22T13:22:31;7.93;;;6.20;;
71947;SDS011;63257;55.082;38.772;2023-06-22T13:25:05;9.63;;;6.10;;
71947;SDS011;63257;55.082;38.772;2023-06-22T13:27:32;7.45;;;6.30;;
71947;SDS011;63257;55.082;38.772;2023-06-22T13:29:58;7.40;;;6.30;;
71947;SDS011;63257;55.082;38.772;2023-06-22T13:32:23;8.10;;;6.20;;
71947;SDS011;63257;55.082;38.772;2023-06-22T13:34:51;8.75;;;7.40;;
71947;SDS011;63257;55.082;38.772;2023-06-22T13:37:17;7.78;;;4.95;;
71947;SDS011;63257;55.082;38.772;2023-06-22T13:39:43;9.10;;;6.83;;
71947;SDS011;63257;55.082;38.772;2023-06-22T13:42:09;8.23;;;6.65;;
71947;SDS011;63257;55.082;38.772;2023-06-22T13:44:35;8.30;;;6.60;;
71947;SDS011;63257;55.082;38.772;2023-06-22T13:47:01;7.17;;;5.87;;
71947;SDS011;63257;55.082;38.772;2023-06-22T13:49:27;9.02;;;6.50;;
71947;SDS011;63257;55.082;38.772;2023-06-22T13:51:53;7.35;;;6.50;;
71947;SDS011;63257;55.082;38.772;2023-06-22T13:54:20;8.02;;;6.55;;
71947;SDS011;63257;55.082;38.772;2023-06-22T13:56:46;8.10;;;6.37;;
71947;SDS011;63257;55.082;38.772;2023-06-22T13:59:13;8.65;;;5.25;;
71947;SDS011;63257;55.082;38.772;2023-06-22T14:01:39;9.20;;;5.20;;
71947;SDS011;63257;55.082;38.772;2023-06-22T14:04:05;9.07;;;5.88;;
71947;SDS011;63257;55.082;38.772;2023-06-22T14:06:31;7.63;;;5.93;;
71947;SDS011;63257;55.082;38.772;2023-06-22T14:08:57;9.77;;;6.65;;
71947;SDS011;63257;55.082;38.772;2023-06-22T14:11:24;8.53;;;6.57;;
71947;SDS011;63257;55.082;38.772;2023-06-22T14:13:50;7.93;;;5.60;;
71947;SDS011;63257;55.082;38.772;2023-06-22T14:16:16;14.85;;;11.20;;
71947;SDS011;63257;55.082;38.772;2023-06-22T14:18:42;7.47;;;5.20;;
71947;SDS011;63257;55.082;38.772;2023-06-22T14:21:07;8.38;;;6.60;;
71947;SDS011;63257;55.082;38.772;2023-06-22T14:23:33;9.38;;;7.25;;
71947;SDS011;63257;55.082;38.772;2023-06-22T14:25:59;10.03;;;6.47;;
71947;SDS011;63257;55.082;38.772;2023-06-22T14:28:25;7.78;;;6.30;;
71947;SDS011;63257;55.082;38.772;2023-06-22T14:30:51;8.43;;;6.60;;
71947;SDS011;63257;55.082;38.772;2023-06-22T14:33:17;8.07;;;6.88;;
71947;SDS011;63257;55.082;38.772;2023-06-22T14:35:42;8.45;;;7.05;;